createdAt,value
2018-07-27T17:08:29.149Z,15.53
2018-07-27T17:10:58.267Z,11.07
2018-07-27T17:13:26.199Z,11.33
2018-07-27T17:15:54.409Z,10.57
2018-07-27T17:18:22.477Z,14.53
2018-07-27T17:20:51.802Z,10.57
2018-07-27T17:23:20.142Z,10.50
2018-07-27T17:25:48.458Z,10.87
2018-07-27T17:28:16.611Z,11.40
2018-07-27T17:30:44.967Z,9.33
2018-07-27T17:33:13.071Z,10.73
2018-07-27T17:35:41.022Z,9.77
2018-07-27T17:38:09.186Z,9.77
2018-07-27T17:40:37.270Z,10.40
2018-07-27T17:43:05.692Z,10.47
2018-07-27T17:45:34.085Z,12.57
2018-07-27T17:48:02.326Z,12.10
2018-07-27T17:50:30.475Z,12.10
2018-07-27T17:52:59.672Z,12.60
2018-07-27T17:55:27.873Z,10.67
2018-07-27T17:57:56.157Z,12.23
2018-07-27T18:00:24.657Z,12.27
2018-07-27T18:02:53.060Z,12.07
2018-07-27T18:05:21.710Z,12.63
2018-07-27T18:07:49.647Z,11.73
2018-07-27T18:10:17.875Z,12.47
2018-07-27T18:12:46.179Z,13.13
2018-07-27T18:15:14.499Z,13.30
2018-07-27T18:17:42.602Z,11.73
2018-07-27T18:20:11.827Z,13.20
2018-07-27T18:22:40.265Z,13.30
2018-07-27T18:25:12.501Z,14.73
2018-07-27T18:27:41.819Z,12.83
2018-07-27T18:30:10.674Z,13.43
2018-07-27T18:32:38.790Z,12.93
2018-07-27T18:35:08.146Z,13.20
2018-07-27T18:37:36.670Z,12.67
2018-07-27T18:40:05.313Z,15.47
2018-07-27T18:42:33.470Z,14.63
2018-07-27T18:45:01.906Z,13.63
2018-07-27T18:47:30.258Z,14.67
2018-07-27T18:49:58.706Z,14.70
2018-07-27T18:52:26.577Z,14.80
2018-07-27T18:54:54.785Z,14.03
2018-07-27T18:57:23.351Z,14.23
2018-07-27T18:59:51.551Z,16.20
2018-07-27T19:02:19.877Z,14.13
2018-07-27T19:04:48.281Z,14.50
2018-07-27T19:07:16.461Z,12.07
2018-07-27T19:09:44.775Z,12.10
2018-07-27T19:12:13.105Z,10.90
2018-07-27T19:14:41.547Z,11.90
2018-07-27T19:17:09.445Z,14.20
2018-07-27T19:19:37.793Z,15.77
2018-07-27T19:22:06.148Z,19.40
2018-07-27T19:24:35.332Z,13.37
2018-07-27T19:27:03.625Z,11.90
2018-07-27T19:29:31.751Z,11.93
2018-07-27T19:31:59.852Z,12.60
2018-07-27T19:34:28.227Z,13.10
2018-07-27T19:36:56.581Z,12.20
2018-07-27T19:39:24.899Z,11.30
2018-07-27T19:41:52.966Z,12.40
2018-07-27T19:44:21.042Z,10.80
2018-07-27T19:46:49.120Z,10.73
2018-07-27T19:49:17.078Z,9.63
2018-07-27T19:51:45.306Z,10.70
2018-07-27T19:54:14.306Z,10.77
2018-07-27T19:56:42.764Z,10.67
2018-07-27T19:59:10.622Z,9.83
2018-07-27T20:01:38.814Z,10.83
2018-07-27T20:04:06.934Z,11.10
2018-07-27T20:06:35.287Z,11.10
2018-07-27T20:09:05.963Z,10.97
2018-07-27T20:11:34.122Z,10.90
2018-07-27T20:14:02.203Z,10.77
2018-07-27T20:16:30.261Z,11.57
2018-07-27T20:18:58.287Z,11.40
2018-07-27T20:21:26.524Z,11.13
2018-07-27T20:23:54.773Z,11.97
2018-07-27T20:26:23.850Z,12.27
2018-07-27T20:28:53.094Z,10.60
2018-07-27T20:31:22.951Z,10.80
2018-07-27T20:33:51.455Z,12.77
2018-07-27T20:36:19.837Z,16.00
2018-07-27T20:38:48.147Z,24.27
2018-07-27T20:41:16.347Z,34.77
2018-07-27T20:43:44.404Z,33.83
2018-07-27T20:46:12.304Z,27.00
2018-07-27T20:48:40.485Z,26.27
2018-07-27T20:51:08.829Z,22.30
2018-07-27T20:53:37.186Z,17.40
2018-07-27T20:56:05.493Z,16.87
2018-07-27T20:58:33.717Z,14.97
2018-07-27T21:01:01.517Z,13.97
2018-07-27T21:03:29.749Z,13.70
2018-07-27T21:05:57.844Z,13.87
2018-07-27T21:08:25.962Z,11.43
2018-07-27T21:10:53.899Z,11.83
2018-07-27T21:13:22.538Z,10.13
2018-07-27T21:15:50.726Z,12.80
2018-07-27T21:18:18.770Z,12.00
2018-07-27T21:20:47.146Z,10.63
2018-07-27T21:23:15.330Z,10.90
2018-07-27T21:25:44.144Z,10.97
2018-07-27T21:28:12.326Z,11.37
2018-07-27T21:30:40.372Z,10.77
2018-07-27T21:33:08.530Z,11.57
2018-07-27T21:35:39.782Z,12.90
2018-07-27T21:38:08.249Z,12.27
2018-07-27T21:40:36.430Z,12.10
2018-07-27T21:43:04.821Z,12.83
2018-07-27T21:45:32.753Z,11.27
2018-07-27T21:48:00.920Z,11.83
2018-07-27T21:50:29.053Z,13.23
2018-07-27T21:52:57.053Z,12.90
2018-07-27T21:55:25.029Z,12.47
2018-07-27T21:57:53.356Z,11.10
2018-07-27T22:00:21.691Z,11.10
2018-07-27T22:02:50.024Z,12.43
2018-07-27T22:05:17.994Z,11.30
2018-07-27T22:07:49.186Z,13.37
2018-07-27T22:10:17.270Z,16.17
2018-07-27T22:12:46.198Z,17.37
2018-07-27T22:15:19.848Z,17.20
2018-07-27T22:17:48.094Z,14.30
2018-07-27T22:20:16.331Z,12.53
2018-07-27T22:22:44.730Z,10.50
2018-07-27T22:25:13.013Z,11.60
2018-07-27T22:27:41.235Z,12.27
2018-07-27T22:30:10.735Z,11.20
2018-07-27T22:32:38.906Z,12.17
2018-07-27T22:35:07.334Z,10.90
2018-07-27T22:37:36.038Z,11.40
2018-07-27T22:40:04.493Z,11.70
2018-07-27T22:42:32.591Z,10.90
2018-07-27T22:45:00.753Z,11.87
2018-07-27T22:47:29.042Z,12.80
2018-07-27T22:49:57.230Z,12.20
2018-07-27T22:52:25.480Z,11.73
2018-07-27T22:54:53.639Z,11.50
2018-07-27T22:57:22.038Z,12.73
2018-07-27T22:59:50.287Z,12.47
2018-07-27T23:02:18.389Z,12.33
2018-07-27T23:04:47.730Z,12.07
2018-07-27T23:07:15.750Z,14.17
2018-07-27T23:09:43.832Z,12.77
2018-07-27T23:12:11.888Z,12.50
2018-07-27T23:14:39.973Z,12.77
2018-07-27T23:17:08.135Z,12.43
2018-07-27T23:19:36.482Z,12.40
2018-07-27T23:22:04.385Z,12.13
2018-07-27T23:24:32.617Z,12.40
2018-07-27T23:27:00.778Z,12.87
2018-07-27T23:29:29.400Z,12.73
2018-07-27T23:31:57.817Z,13.53
2018-07-27T23:34:26.082Z,13.23
2018-07-27T23:36:54.182Z,12.73
2018-07-27T23:39:22.189Z,13.40
2018-07-27T23:41:50.346Z,12.73
2018-07-27T23:44:18.390Z,13.83
2018-07-27T23:46:46.478Z,14.07
2018-07-27T23:49:14.493Z,14.00
2018-07-27T23:51:42.607Z,14.53
2018-07-27T23:54:10.682Z,15.50
2018-07-27T23:56:38.654Z,14.30
2018-07-27T23:59:06.906Z,15.90
